Time,TemperatureF,DewpointF,PressureIn,WindDirection,WindDirectionDegrees,WindSpeedMPH,WindSpeedGustMPH,Humidity,HourlyPrecipIn,Conditions,Clouds,dailyrainin,SoftwareType,DateUTC
2013-01-24 00:00:00,52.0,39.7,30.31,East,90,0.0,2.0,63,0.00,,,0.00,meteohub,2013-01-24 05:00:00,
2013-01-24 00:01:00,52.0,39.7,30.31,East,90,0.0,2.0,63,0.00,,,0.00,meteohub,2013-01-24 05:01:00,
2013-01-24 00:02:00,52.0,39.7,30.31,East,90,0.0,2.0,63,0.00,,,0.00,meteohub,2013-01-24 05:02:00,
2013-01-24 00:03:00,52.0,39.7,30.32,East,90,0.0,2.0,63,0.00,,,0.00,meteohub,2013-01-24 05:03:00,
2013-01-24 00:08:00,51.8,40.5,30.32,East,90,0.0,2.0,65,0.00,,,0.00,meteohub,2013-01-24 05:08:00,
2013-01-24 00:13:00,51.6,40.6,30.31,East,90,1.0,2.0,66,0.00,,,0.00,meteohub,2013-01-24 05:13:00,
2013-01-24 00:18:00,51.4,40.8,30.32,East,90,0.0,1.0,67,0.00,,,0.00,meteohub,2013-01-24 05:18:00,
2013-01-24 00:23:00,51.1,41.2,30.32,East,90,0.0,2.0,69,0.00,,,0.00,meteohub,2013-01-24 05:23:00,
2013-01-24 00:29:00,50.5,41.5,30.32,East,90,2.0,2.0,71,0.00,,,0.00,meteohub,2013-01-24 05:29:00,
2013-01-24 00:34:00,50.7,42.1,30.32,East,90,0.0,2.0,72,0.00,,,0.00,meteohub,2013-01-24 05:34:00,
2013-01-24 00:39:00,50.5,41.5,30.32,East,90,0.0,2.0,71,0.00,,,0.00,meteohub,2013-01-24 05:39:00,
2013-01-24 00:44:00,50.4,41.4,30.32,East,90,0.0,2.0,71,0.00,,,0.00,meteohub,2013-01-24 05:44:00,
2013-01-24 00:49:00,49.8,41.5,30.32,East,90,0.0,2.0,73,0.00,,,0.00,meteohub,2013-01-24 05:49:00,
2013-01-24 00:54:00,49.6,41.7,30.32,East,90,0.0,0.0,74,0.00,,,0.00,meteohub,2013-01-24 05:54:00,
2013-01-24 01:00:00,49.5,42.3,30.32,East,90,0.0,0.0,76,0.00,,,0.00,meteohub,2013-01-24 06:00:00,
2013-01-24 01:05:00,49.3,42.1,30.31,East,90,0.0,0.0,76,0.00,,,0.00,meteohub,2013-01-24 06:05:00,
2013-01-24 01:10:00,49.1,42.8,30.32,East,90,0.0,0.0,79,0.00,,,0.00,meteohub,2013-01-24 06:10:00,
2013-01-24 01:15:00,48.9,42.6,30.32,East,90,0.0,0.0,79,0.00,,,0.00,meteohub,2013-01-24 06:15:00,
2013-01-24 01:20:00,48.9,43.3,30.32,East,90,0.0,0.0,81,0.00,,,0.00,meteohub,2013-01-24 06:20:00,
2013-01-24 01:25:00,48.9,44.1,30.32,East,90,0.0,0.0,83,0.00,,,0.00,meteohub,2013-01-24 06:25:00,
2013-01-24 01:30:00,49.1,44.4,30.32,East,90,2.0,2.0,84,0.00,,,0.00,meteohub,2013-01-24 06:30:00,
2013-01-24 01:35:00,49.5,45.1,30.32,ESE,113,2.0,2.0,85,0.00,,,0.00,meteohub,2013-01-24 06:35:00,
2013-01-24 01:40:00,49.6,45.3,30.32,SE,135,2.0,2.0,85,0.00,,,0.00,meteohub,2013-01-24 06:40:00,
2013-01-24 01:46:00,49.6,45.3,30.31,East,90,4.0,4.0,85,0.00,,,0.00,meteohub,2013-01-24 06:46:00,
2013-01-24 01:51:00,49.8,45.5,30.31,East,90,2.0,4.0,85,0.00,,,0.00,meteohub,2013-01-24 06:51:00,
2013-01-24 01:56:00,50.0,46.0,30.30,NE,45,3.0,4.0,86,0.00,,,0.00,meteohub,2013-01-24 06:56:00,
2013-01-24 02:01:00,50.2,46.2,30.31,East,90,2.0,4.0,86,0.00,,,0.00,meteohub,2013-01-24 07:01:00,
2013-01-24 02:06:00,50.2,46.2,30.31,East,90,2.0,4.0,86,0.00,,,0.00,meteohub,2013-01-24 07:06:00,
2013-01-24 02:11:00,50.5,46.8,30.31,East,90,4.0,5.0,87,0.00,,,0.00,meteohub,2013-01-24 07:11:00,
2013-01-24 02:17:00,50.5,46.8,30.31,East,90,4.0,5.0,87,0.00,,,0.00,meteohub,2013-01-24 07:17:00,
2013-01-24 02:22:00,50.5,46.8,30.31,SE,135,2.0,5.0,87,0.00,,,0.00,meteohub,2013-01-24 07:22:00,
2013-01-24 02:27:00,50.5,46.8,30.31,SE,135,3.0,4.0,87,0.00,,,0.00,meteohub,2013-01-24 07:27:00,
2013-01-24 02:32:00,50.5,46.8,30.32,East,90,3.0,4.0,87,0.00,,,0.00,meteohub,2013-01-24 07:32:00,
2013-01-24 02:37:00,50.2,46.4,30.31,NE,45,0.0,3.0,87,0.00,,,0.00,meteohub,2013-01-24 07:37:00,
2013-01-24 02:42:00,50.0,46.2,30.31,NE,45,0.0,3.0,87,0.00,,,0.00,meteohub,2013-01-24 07:42:00,
2013-01-24 02:47:00,49.5,45.7,30.31,NE,45,0.0,3.0,87,0.00,,,0.00,meteohub,2013-01-24 07:47:00,
2013-01-24 02:52:00,49.1,45.7,30.31,NE,45,0.0,2.0,88,0.00,,,0.00,meteohub,2013-01-24 07:52:00,
2013-01-24 02:57:00,48.7,45.9,30.31,NE,45,0.0,1.0,90,0.00,,,0.00,meteohub,2013-01-24 07:57:00,
2013-01-24 03:02:00,48.6,45.7,30.31,NE,45,0.0,0.0,90,0.00,,,0.00,meteohub,2013-01-24 08:02:00,
2013-01-24 03:07:00,48.6,45.7,30.31,NE,45,0.0,0.0,90,0.00,,,0.00,meteohub,2013-01-24 08:07:00,
2013-01-24 03:12:00,47.7,45.1,30.31,NE,45,0.0,0.0,91,0.00,,,0.00,meteohub,2013-01-24 08:12:00,
2013-01-24 03:17:00,47.3,45.1,30.30,NE,45,0.0,0.0,92,0.00,,,0.00,meteohub,2013-01-24 08:17:00,
2013-01-24 03:22:00,47.3,45.3,30.30,NE,45,0.0,0.0,93,0.00,,,0.00,meteohub,2013-01-24 08:22:00,
2013-01-24 03:27:00,47.1,45.1,30.30,West,270,0.0,0.0,93,0.00,,,0.00,meteohub,2013-01-24 08:27:00,
2013-01-24 03:32:00,46.9,45.3,30.30,West,270,0.0,0.0,94,0.00,,,0.00,meteohub,2013-01-24 08:32:00,
2013-01-24 03:37:00,46.8,45.1,30.30,West,270,0.0,0.0,94,0.00,,,0.00,meteohub,2013-01-24 08:37:00,
2013-01-24 03:42:00,46.6,45.0,30.30,West,270,0.0,0.0,94,0.00,,,0.00,meteohub,2013-01-24 08:42:00,
2013-01-24 03:47:00,46.4,45.0,30.29,West,270,0.0,0.0,95,0.00,,,0.00,meteohub,2013-01-24 08:47:00,
2013-01-24 03:52:00,46.2,44.8,30.29,West,270,0.0,0.0,95,0.00,,,0.00,meteohub,2013-01-24 08:52:00,
2013-01-24 03:57:00,46.0,44.6,30.29,West,270,0.0,0.0,95,0.00,,,0.00,meteohub,2013-01-24 08:57:00,
2013-01-24 04:02:00,45.9,44.4,30.29,West,270,0.0,0.0,95,0.00,,,0.00,meteohub,2013-01-24 09:02:00,
2013-01-24 04:07:00,45.9,44.4,30.29,West,270,0.0,0.0,95,0.00,,,0.00,meteohub,2013-01-24 09:07:00,
2013-01-24 04:12:00,45.5,44.4,30.29,West,270,0.0,0.0,96,0.00,,,0.00,meteohub,2013-01-24 09:12:00,
2013-01-24 04:17:00,45.5,44.8,30.29,West,270,0.0,0.0,97,0.00,,,0.00,meteohub,2013-01-24 09:17:00,
2013-01-24 04:22:00,45.5,44.8,30.29,East,90,1.0,0.0,97,0.00,,,0.00,meteohub,2013-01-24 09:22:00,
2013-01-24 04:27:00,45.5,45.0,30.29,East,90,0.0,2.0,98,0.00,,,0.00,meteohub,2013-01-24 09:27:00,
2013-01-24 04:32:00,45.7,45.5,30.29,East,90,2.0,2.0,99,0.00,,,0.00,meteohub,2013-01-24 09:32:00,
2013-01-24 04:37:00,46.0,45.9,30.29,East,90,0.0,2.0,99,0.00,,,0.00,meteohub,2013-01-24 09:37:00,
2013-01-24 04:42:00,46.0,45.9,30.29,East,90,0.0,2.0,99,0.00,,,0.00,meteohub,2013-01-24 09:42:00,
2013-01-24 04:47:00,45.9,45.7,30.29,East,90,0.0,2.0,99,0.00,,,0.00,meteohub,2013-01-24 09:47:00,
2013-01-24 04:52:00,46.0,45.9,30.29,East,90,0.0,0.0,99,0.00,,,0.00,meteohub,2013-01-24 09:52:00,
2013-01-24 04:57:00,46.0,45.9,30.29,East,90,0.0,0.0,99,0.00,,,0.00,meteohub,2013-01-24 09:57:00,
2013-01-24 05:02:00,46.0,45.9,30.29,East,90,0.0,0.0,99,0.00,,,0.00,meteohub,2013-01-24 10:02:00,
2013-01-24 05:07:00,46.0,45.9,30.29,East,90,0.0,0.0,99,0.00,,,0.00,meteohub,2013-01-24 10:07:00,
2013-01-24 05:12:00,46.0,45.9,30.29,East,90,0.0,1.0,99,0.00,,,0.00,meteohub,2013-01-24 10:12:00,
2013-01-24 05:17:00,46.4,46.2,30.29,East,90,2.0,2.0,99,0.00,,,0.00,meteohub,2013-01-24 10:17:00,
2013-01-24 05:22:00,46.6,46.4,30.29,East,90,0.0,2.0,99,0.00,,,0.00,meteohub,2013-01-24 10:22:00,
2013-01-24 05:27:00,46.6,46.4,30.29,East,90,1.0,2.0,99,0.00,,,0.00,meteohub,2013-01-24 10:27:00,
2013-01-24 05:32:00,46.8,46.6,30.29,East,90,0.0,2.0,99,0.00,,,0.00,meteohub,2013-01-24 10:32:00,
2013-01-24 05:37:00,46.9,46.8,30.29,East,90,0.0,1.0,99,0.00,,,0.00,meteohub,2013-01-24 10:37:00,
2013-01-24 05:42:00,46.9,46.8,30.30,East,90,0.0,2.0,99,0.00,,,0.00,meteohub,2013-01-24 10:42:00,
2013-01-24 05:47:00,46.9,46.8,30.30,East,90,0.0,2.0,99,0.00,,,0.00,meteohub,2013-01-24 10:47:00,
2013-01-24 05:52:00,46.9,46.8,30.31,East,90,0.0,2.0,99,0.00,,,0.00,meteohub,2013-01-24 10:52:00,
2013-01-24 05:57:00,46.9,46.8,30.31,East,90,0.0,1.0,99,0.00,,,0.00,meteohub,2013-01-24 10:57:00,
2013-01-24 06:02:00,46.8,46.6,30.31,East,90,1.0,1.0,99,0.00,,,0.00,meteohub,2013-01-24 11:02:00,
2013-01-24 06:08:00,48.7,48.6,30.32,ENE,68,2.0,2.0,99,0.00,,,0.00,meteohub,2013-01-24 11:08:00,
2013-01-24 06:13:00,46.6,46.4,30.32,East,90,1.0,2.0,99,0.00,,,0.00,meteohub,2013-01-24 11:13:00,
2013-01-24 06:18:00,47.1,46.9,30.32,East,90,0.0,2.0,99,0.00,,,0.00,meteohub,2013-01-24 11:18:00,
2013-01-24 06:23:00,47.3,47.1,30.32,East,90,0.0,2.0,99,0.00,,,0.00,meteohub,2013-01-24 11:23:00,
2013-01-24 06:28:00,47.3,47.1,30.32,East,90,0.0,2.0,99,0.00,,,0.00,meteohub,2013-01-24 11:28:00,
2013-01-24 06:33:00,47.3,47.1,30.32,East,90,0.0,2.0,99,0.00,,,0.00,meteohub,2013-01-24 11:33:00,
2013-01-24 06:39:00,47.5,47.3,30.32,East,90,2.0,2.0,99,0.00,,,0.00,meteohub,2013-01-24 11:39:00,
2013-01-24 06:44:00,47.7,47.5,30.32,SE,135,0.0,2.0,99,0.00,,,0.00,meteohub,2013-01-24 11:44:00,
2013-01-24 06:49:00,47.8,47.7,30.32,SE,135,0.0,2.0,99,0.00,,,0.00,meteohub,2013-01-24 11:49:00,
2013-01-24 06:54:00,47.7,47.5,30.32,SE,135,0.0,2.0,99,0.00,,,0.00,meteohub,2013-01-24 11:54:00,
2013-01-24 06:59:00,47.3,47.1,30.32,SE,135,0.0,1.0,99,0.00,,,0.00,meteohub,2013-01-24 11:59:00,
2013-01-24 07:04:00,47.3,47.1,30.32,SE,135,0.0,1.0,99,0.00,,,0.00,meteohub,2013-01-24 12:04:00,
2013-01-24 07:09:00,46.6,46.4,30.32,SE,135,0.0,1.0,99,0.00,,,0.00,meteohub,2013-01-24 12:09:00,
2013-01-24 07:14:00,46.4,46.2,30.32,SE,135,0.0,1.0,99,0.00,,,0.00,meteohub,2013-01-24 12:14:00,
2013-01-24 07:20:00,46.4,46.2,30.32,SE,135,0.0,0.0,99,0.00,,,0.00,meteohub,2013-01-24 12:20:00,
2013-01-24 07:25:00,46.6,46.4,30.32,SE,135,0.0,0.0,99,0.00,,,0.00,meteohub,2013-01-24 12:25:00,
2013-01-24 07:30:00,46.8,46.6,30.32,SE,135,0.0,0.0,99,0.00,,,0.00,meteohub,2013-01-24 12:30:00,
2013-01-24 07:35:00,47.1,46.9,30.32,SE,135,0.0,0.0,99,0.00,,,0.00,meteohub,2013-01-24 12:35:00,
2013-01-24 07:40:00,47.1,46.9,30.32,SE,135,0.0,0.0,99,0.00,,,0.00,meteohub,2013-01-24 12:40:00,
2013-01-24 07:45:00,47.1,46.9,30.33,SE,135,0.0,0.0,99,0.00,,,0.00,meteohub,2013-01-24 12:45:00,
2013-01-24 07:50:00,47.3,47.1,30.33,SE,135,0.0,0.0,99,0.00,,,0.00,meteohub,2013-01-24 12:50:00,
2013-01-24 07:56:00,47.5,47.3,30.33,SE,135,0.0,0.0,99,0.00,,,0.00,meteohub,2013-01-24 12:56:00,
2013-01-24 08:01:00,48.0,47.8,30.33,SE,135,0.0,0.0,99,0.00,,,0.00,meteohub,2013-01-24 13:01:00,
2013-01-24 08:06:00,49.3,49.1,30.33,SE,135,0.0,0.0,99,0.00,,,0.00,meteohub,2013-01-24 13:06:00,
2013-01-24 08:11:00,50.5,50.2,30.33,SE,135,0.0,0.0,99,0.00,,,0.00,meteohub,2013-01-24 13:11:00,
2013-01-24 08:16:00,51.3,50.9,30.34,SE,135,0.0,0.0,99,0.00,,,0.00,meteohub,2013-01-24 13:16:00,
2013-01-24 08:21:00,52.3,52.0,30.34,SE,135,0.0,2.0,99,0.00,,,0.00,meteohub,2013-01-24 13:21:00,
2013-01-24 08:26:00,53.2,52.9,30.34,South,180,3.0,3.0,99,0.00,,,0.00,meteohub,2013-01-24 13:26:00,
2013-01-24 08:31:00,54.1,53.8,30.34,South,180,1.0,3.0,99,0.00,,,0.00,meteohub,2013-01-24 13:31:00,
2013-01-24 08:37:00,55.4,54.9,30.34,South,180,3.0,3.0,98,0.00,,,0.00,meteohub,2013-01-24 13:37:00,
2013-01-24 08:42:00,56.5,54.5,30.34,SE,135,4.0,4.0,93,0.00,,,0.00,meteohub,2013-01-24 13:42:00,
2013-01-24 08:47:00,57.4,52.5,30.34,SE,135,2.0,5.0,84,0.00,,,0.00,meteohub,2013-01-24 13:47:00,
2013-01-24 08:52:00,58.5,50.5,30.34,South,180,6.0,6.0,75,0.00,,,0.00,meteohub,2013-01-24 13:52:00,
2013-01-24 08:57:00,59.5,49.3,30.35,SE,135,3.0,6.0,69,0.00,,,0.00,meteohub,2013-01-24 13:57:00,
2013-01-24 09:02:00,60.3,47.7,30.35,SE,135,5.0,6.0,63,0.00,,,0.00,meteohub,2013-01-24 14:02:00,
2013-01-24 09:07:00,60.6,45.7,30.35,South,180,5.0,7.0,58,0.00,,,0.00,meteohub,2013-01-24 14:07:00,
2013-01-24 09:12:00,61.0,44.2,30.35,South,180,7.0,7.0,54,0.00,,,0.00,meteohub,2013-01-24 14:12:00,
2013-01-24 09:17:00,61.2,43.9,30.35,South,180,8.0,8.0,53,0.00,,,0.00,meteohub,2013-01-24 14:17:00,
2013-01-24 09:22:00,61.7,44.4,30.35,South,180,7.0,8.0,53,0.00,,,0.00,meteohub,2013-01-24 14:22:00,
2013-01-24 09:27:00,62.2,45.0,30.35,East,90,5.0,8.0,53,0.00,,,0.00,meteohub,2013-01-24 14:27:00,
2013-01-24 09:32:00,63.1,42.1,30.35,SE,135,8.0,8.0,46,0.00,,,0.00,meteohub,2013-01-24 14:32:00,
2013-01-24 09:37:00,63.7,41.9,30.35,South,180,8.0,8.0,45,0.00,,,0.00,meteohub,2013-01-24 14:37:00,
2013-01-24 09:42:00,64.0,41.2,30.35,SW,225,5.0,8.0,43,0.00,,,0.00,meteohub,2013-01-24 14:42:00,
2013-01-24 09:47:00,64.0,39.9,30.35,South,180,10.0,14.0,41,0.00,,,0.00,meteohub,2013-01-24 14:47:00,
2013-01-24 09:52:00,64.2,40.6,30.36,SE,135,8.0,14.0,42,0.00,,,0.00,meteohub,2013-01-24 14:52:00,
2013-01-24 09:57:00,64.8,39.9,30.36,South,180,11.0,14.0,40,0.00,,,0.00,meteohub,2013-01-24 14:57:00,
2013-01-24 10:02:00,65.3,39.7,30.36,South,180,9.0,12.0,39,0.00,,,0.00,meteohub,2013-01-24 15:02:00,
2013-01-24 10:07:00,65.7,40.6,30.36,East,90,6.0,12.0,40,0.00,,,0.00,meteohub,2013-01-24 15:07:00,
2013-01-24 10:12:00,66.4,39.4,30.36,SE,135,7.0,12.0,37,0.00,,,0.00,meteohub,2013-01-24 15:12:00,
2013-01-24 10:17:00,66.9,39.0,30.36,East,90,5.0,11.0,36,0.00,,,0.00,meteohub,2013-01-24 15:17:00,
2013-01-24 10:22:00,67.6,37.6,30.36,SE,135,7.0,9.0,33,0.00,,,0.00,meteohub,2013-01-24 15:22:00,
2013-01-24 10:28:00,67.6,38.3,30.36,East,90,8.0,9.0,34,0.00,,,0.00,meteohub,2013-01-24 15:28:00,
2013-01-24 10:33:00,67.8,37.6,30.36,East,90,4.0,11.0,33,0.00,,,0.00,meteohub,2013-01-24 15:33:00,
2013-01-24 10:38:00,68.4,35.8,30.37,SE,135,5.0,11.0,30,0.00,,,0.00,meteohub,2013-01-24 15:38:00,
2013-01-24 10:43:00,68.7,35.2,30.37,ESE,113,7.0,11.0,29,0.00,,,0.00,meteohub,2013-01-24 15:43:00,
2013-01-24 10:48:00,69.1,34.5,30.36,East,90,8.0,9.0,28,0.00,,,0.00,meteohub,2013-01-24 15:48:00,
2013-01-24 10:53:00,68.9,32.5,30.36,South,180,11.0,11.0,26,0.00,,,0.00,meteohub,2013-01-24 15:53:00,
2013-01-24 10:58:00,69.4,34.0,30.36,East,90,10.0,12.0,27,0.00,,,0.00,meteohub,2013-01-24 15:58:00,
2013-01-24 11:03:00,70.0,32.5,30.36,East,90,6.0,12.0,25,0.00,,,0.00,meteohub,2013-01-24 16:03:00,
2013-01-24 11:08:00,70.3,31.8,30.36,SE,135,13.0,13.0,24,0.00,,,0.00,meteohub,2013-01-24 16:08:00,
2013-01-24 11:13:00,70.3,30.7,30.36,South,180,6.0,13.0,23,0.00,,,0.00,meteohub,2013-01-24 16:13:00,
2013-01-24 11:19:00,70.5,29.8,30.36,East,90,9.0,13.0,22,0.00,,,0.00,meteohub,2013-01-24 16:19:00,
2013-01-24 11:24:00,70.7,32.2,30.36,SE,135,6.0,13.0,24,0.00,,,0.00,meteohub,2013-01-24 16:24:00,
2013-01-24 11:29:00,71.1,31.5,30.36,East,90,6.0,12.0,23,0.00,,,0.00,meteohub,2013-01-24 16:29:00,
2013-01-24 11:34:00,71.6,29.7,30.36,South,180,8.0,12.0,21,0.00,,,0.00,meteohub,2013-01-24 16:34:00,
2013-01-24 11:39:00,71.8,28.6,30.35,East,90,8.0,11.0,20,0.00,,,0.00,meteohub,2013-01-24 16:39:00,
2013-01-24 11:44:00,71.8,29.7,30.35,SE,135,6.0,11.0,21,0.00,,,0.00,meteohub,2013-01-24 16:44:00,
2013-01-24 11:49:00,72.0,28.8,30.35,East,90,9.0,11.0,20,0.00,,,0.00,meteohub,2013-01-24 16:49:00,
2013-01-24 11:54:00,72.3,28.9,30.35,East,90,4.0,11.0,20,0.00,,,0.00,meteohub,2013-01-24 16:54:00,
2013-01-24 12:00:00,72.7,25.3,30.35,ESE,113,8.0,11.0,17,0.00,,,0.00,meteohub,2013-01-24 17:00:00,
2013-01-24 12:05:00,72.7,30.6,30.34,East,90,4.0,10.0,21,0.00,,,0.00,meteohub,2013-01-24 17:05:00,
2013-01-24 12:10:00,73.2,27.1,30.34,SE,135,6.0,9.0,18,0.00,,,0.00,meteohub,2013-01-24 17:10:00,
2013-01-24 12:15:00,72.9,28.2,30.34,South,180,13.0,13.0,19,0.00,,,0.00,meteohub,2013-01-24 17:15:00,
2013-01-24 12:20:00,72.5,29.1,30.34,SE,135,8.0,13.0,20,0.00,,,0.00,meteohub,2013-01-24 17:20:00,
2013-01-24 12:25:00,72.7,30.6,30.33,SW,225,3.0,13.0,21,0.00,,,0.00,meteohub,2013-01-24 17:25:00,
2013-01-24 12:31:00,73.4,27.3,30.32,East,90,8.0,13.0,18,0.00,,,0.00,meteohub,2013-01-24 17:31:00,
2013-01-24 12:36:00,73.8,27.7,30.32,South,180,3.0,11.0,18,0.00,,,0.00,meteohub,2013-01-24 17:36:00,
2013-01-24 12:41:00,73.6,26.1,30.32,SW,225,7.0,8.0,17,0.00,,,0.00,meteohub,2013-01-24 17:41:00,
2013-01-24 12:46:00,73.4,23.0,30.31,NW,315,2.0,12.0,15,0.00,,,0.00,meteohub,2013-01-24 17:46:00,
2013-01-24 12:51:00,74.3,22.1,30.31,NE,45,4.0,12.0,14,0.00,,,0.00,meteohub,2013-01-24 17:51:00,
2013-01-24 12:56:00,74.7,16.7,30.31,East,90,4.0,12.0,11,0.00,,,0.00,meteohub,2013-01-24 17:56:00,
2013-01-24 13:01:00,75.0,16.9,30.30,East,90,5.0,11.0,11,0.00,,,0.00,meteohub,2013-01-24 18:01:00,
2013-01-24 13:07:00,75.2,17.1,30.30,South,180,8.0,11.0,11,0.00,,,0.00,meteohub,2013-01-24 18:07:00,
2013-01-24 13:12:00,75.2,19.0,30.30,NE,45,5.0,11.0,12,0.00,,,0.00,meteohub,2013-01-24 18:12:00,
2013-01-24 13:17:00,75.2,21.0,30.30,East,90,4.0,8.0,13,0.00,,,0.00,meteohub,2013-01-24 18:17:00,
2013-01-24 13:22:00,75.0,20.8,30.29,South,180,7.0,8.0,13,0.00,,,0.00,meteohub,2013-01-24 18:22:00,
2013-01-24 13:27:00,75.2,17.1,30.29,East,90,9.0,9.0,11,0.00,,,0.00,meteohub,2013-01-24 18:27:00,
2013-01-24 13:32:00,75.4,19.2,30.29,SE,135,8.0,9.0,12,0.00,,,0.00,meteohub,2013-01-24 18:32:00,
2013-01-24 13:37:00,75.7,21.4,30.28,SE,135,6.0,9.0,13,0.00,,,0.00,meteohub,2013-01-24 18:37:00,
2013-01-24 13:42:00,75.9,15.4,30.28,South,180,4.0,9.0,10,0.00,,,0.00,meteohub,2013-01-24 18:42:00,
2013-01-24 13:47:00,76.3,76.3,30.28,NW,315,3.0,8.0,0,0.00,,,0.00,meteohub,2013-01-24 18:47:00,
2013-01-24 13:52:00,76.3,76.3,30.28,East,90,4.0,8.0,0,0.00,,,0.00,meteohub,2013-01-24 18:52:00,
2013-01-24 13:57:00,78.1,78.1,30.27,East,90,4.0,8.0,0,0.00,,,0.00,meteohub,2013-01-24 18:57:00,
2013-01-24 14:02:00,76.3,76.3,30.27,South,180,10.0,10.0,0,0.00,,,0.00,meteohub,2013-01-24 19:02:00,
2013-01-24 14:07:00,76.1,76.1,30.27,East,90,4.0,10.0,0,0.00,,,0.00,meteohub,2013-01-24 19:07:00,
2013-01-24 14:12:00,75.9,75.9,30.27,SE,135,6.0,10.0,0,0.00,,,0.00,meteohub,2013-01-24 19:12:00,
2013-01-24 14:17:00,75.9,75.9,30.26,East,90,6.0,15.0,0,0.00,,,0.00,meteohub,2013-01-24 19:17:00,
2013-01-24 14:22:00,75.7,75.7,30.26,South,180,7.0,15.0,0,0.00,,,0.00,meteohub,2013-01-24 19:22:00,
2013-01-24 14:27:00,75.7,75.7,30.26,East,90,5.0,15.0,0,0.00,,,0.00,meteohub,2013-01-24 19:27:00,
2013-01-24 14:32:00,75.9,75.9,30.26,SE,135,6.0,11.0,0,0.00,,,0.00,meteohub,2013-01-24 19:32:00,
2013-01-24 14:37:00,76.3,76.3,30.26,SE,135,7.0,10.0,0,0.00,,,0.00,meteohub,2013-01-24 19:37:00,
2013-01-24 14:43:00,76.3,76.3,30.26,SE,135,4.0,8.0,0,0.00,,,0.00,meteohub,2013-01-24 19:43:00,
2013-01-24 14:48:00,76.5,76.5,30.26,East,90,7.0,8.0,0,0.00,,,0.00,meteohub,2013-01-24 19:48:00,
2013-01-24 14:53:00,76.3,76.3,30.26,NE,45,4.0,8.0,0,0.00,,,0.00,meteohub,2013-01-24 19:53:00,
2013-01-24 14:58:00,76.8,16.2,30.26,SE,135,3.0,10.0,10,0.00,,,0.00,meteohub,2013-01-24 19:58:00,
2013-01-24 15:03:00,77.0,77.0,30.26,SE,135,3.0,10.0,0,0.00,,,0.00,meteohub,2013-01-24 20:03:00,
2013-01-24 15:08:00,76.6,16.0,30.25,East,90,8.0,8.0,10,0.00,,,0.00,meteohub,2013-01-24 20:08:00,
2013-01-24 15:13:00,76.5,15.8,30.25,South,180,4.0,9.0,10,0.00,,,0.00,meteohub,2013-01-24 20:13:00,
2013-01-24 15:18:00,76.5,15.8,30.25,South,180,4.0,9.0,10,0.00,,,0.00,meteohub,2013-01-24 20:18:00,
2013-01-24 15:23:00,76.3,19.9,30.25,North,0,4.0,9.0,12,0.00,,,0.00,meteohub,2013-01-24 20:23:00,
2013-01-24 15:28:00,76.5,15.8,30.25,NW,315,9.0,9.0,10,0.00,,,0.00,meteohub,2013-01-24 20:28:00,
2013-01-24 15:33:00,76.5,18.0,30.25,East,90,4.0,9.0,11,0.00,,,0.00,meteohub,2013-01-24 20:33:00,
2013-01-24 15:38:00,76.5,20.1,30.25,SE,135,4.0,9.0,12,0.00,,,0.00,meteohub,2013-01-24 20:38:00,
2013-01-24 15:44:00,76.8,20.3,30.25,NE,45,4.0,9.0,12,0.00,,,0.00,meteohub,2013-01-24 20:44:00,
2013-01-24 15:49:00,76.8,22.3,30.26,SE,135,4.0,8.0,13,0.00,,,0.00,meteohub,2013-01-24 20:49:00,
2013-01-24 15:54:00,77.0,20.5,30.25,North,0,3.0,8.0,12,0.00,,,0.00,meteohub,2013-01-24 20:54:00,
2013-01-24 15:59:00,77.2,20.7,30.25,East,90,4.0,8.0,12,0.00,,,0.00,meteohub,2013-01-24 20:59:00,
2013-01-24 16:04:00,77.2,18.7,30.25,East,90,4.0,7.0,11,0.00,,,0.00,meteohub,2013-01-24 21:04:00,
2013-01-24 16:09:00,77.0,22.5,30.26,NW,315,2.0,4.0,13,0.00,,,0.00,meteohub,2013-01-24 21:09:00,
2013-01-24 16:14:00,76.6,20.3,30.26,SE,135,5.0,5.0,12,0.00,,,0.00,meteohub,2013-01-24 21:14:00,
2013-01-24 16:19:00,76.5,20.1,30.26,South,180,5.0,5.0,12,0.00,,,0.00,meteohub,2013-01-24 21:19:00,
2013-01-24 16:24:00,76.6,22.1,30.26,North,0,2.0,8.0,13,0.00,,,0.00,meteohub,2013-01-24 21:24:00,
2013-01-24 16:29:00,76.3,18.0,30.26,SE,135,7.0,8.0,11,0.00,,,0.00,meteohub,2013-01-24 21:29:00,
2013-01-24 16:35:00,76.1,19.8,30.26,SE,135,5.0,9.0,12,0.00,,,0.00,meteohub,2013-01-24 21:35:00,
2013-01-24 16:40:00,76.1,21.7,30.26,SE,135,2.0,9.0,13,0.00,,,0.00,meteohub,2013-01-24 21:40:00,
2013-01-24 16:45:00,76.3,21.7,30.26,SE,135,3.0,9.0,13,0.00,,,0.00,meteohub,2013-01-24 21:45:00,
2013-01-24 16:50:00,76.3,19.9,30.26,East,90,4.0,5.0,12,0.00,,,0.00,meteohub,2013-01-24 21:50:00,
2013-01-24 16:55:00,75.9,21.6,30.27,SE,135,4.0,9.0,13,0.00,,,0.00,meteohub,2013-01-24 21:55:00,
2013-01-24 17:00:00,75.6,24.6,30.27,South,180,3.0,9.0,15,0.00,,,0.00,meteohub,2013-01-24 22:00:00,
2013-01-24 17:05:00,75.4,24.4,30.27,SE,135,4.0,9.0,15,0.00,,,0.00,meteohub,2013-01-24 22:05:00,
2013-01-24 17:10:00,75.2,25.9,30.27,SE,135,2.0,6.0,16,0.00,,,0.00,meteohub,2013-01-24 22:10:00,
2013-01-24 17:16:00,75.0,25.7,30.27,East,90,4.0,6.0,16,0.00,,,0.00,meteohub,2013-01-24 22:16:00,
2013-01-24 17:21:00,75.0,25.7,30.27,East,90,4.0,5.0,16,0.00,,,0.00,meteohub,2013-01-24 22:21:00,
2013-01-24 17:26:00,73.9,34.9,30.27,NW,315,2.0,4.0,24,0.00,,,0.00,meteohub,2013-01-24 22:26:00,
2013-01-24 17:31:00,72.5,41.7,30.27,West,270,0.0,4.0,33,0.00,,,0.00,meteohub,2013-01-24 22:31:00,
2013-01-24 17:36:00,71.2,45.0,30.27,West,270,2.0,4.0,39,0.00,,,0.00,meteohub,2013-01-24 22:36:00,
2013-01-24 17:41:00,70.3,45.0,30.27,North,0,0.0,4.0,40,0.00,,,0.00,meteohub,2013-01-24 22:41:00,
2013-01-24 17:46:00,69.6,45.5,30.27,North,0,1.0,4.0,42,0.00,,,0.00,meteohub,2013-01-24 22:46:00,
2013-01-24 17:51:00,69.1,46.2,30.27,NW,315,2.0,4.0,44,0.00,,,0.00,meteohub,2013-01-24 22:51:00,
2013-01-24 17:56:00,68.2,46.6,30.27,NW,315,2.0,2.0,46,0.00,,,0.00,meteohub,2013-01-24 22:56:00,
2013-01-24 18:01:00,67.8,47.5,30.27,NE,45,3.0,3.0,48,0.00,,,0.00,meteohub,2013-01-24 23:01:00,
2013-01-24 18:07:00,67.3,46.9,30.27,SW,225,2.0,3.0,48,0.00,,,0.00,meteohub,2013-01-24 23:07:00,
2013-01-24 18:12:00,66.7,47.5,30.27,NW,315,2.0,3.0,50,0.00,,,0.00,meteohub,2013-01-24 23:12:00,
2013-01-24 18:17:00,66.2,47.5,30.27,North,0,0.0,3.0,51,0.00,,,0.00,meteohub,2013-01-24 23:17:00,
2013-01-24 18:22:00,66.2,47.5,30.27,North,0,0.0,2.0,51,0.00,,,0.00,meteohub,2013-01-24 23:22:00,
2013-01-24 18:27:00,64.6,47.5,30.28,SW,225,0.0,2.0,54,0.00,,,0.00,meteohub,2013-01-24 23:27:00,
2013-01-24 18:32:00,63.7,48.2,30.27,SW,225,1.0,2.0,57,0.00,,,0.00,meteohub,2013-01-24 23:32:00,
2013-01-24 18:37:00,62.8,49.1,30.27,South,180,0.0,2.0,61,0.00,,,0.00,meteohub,2013-01-24 23:37:00,
2013-01-24 18:42:00,62.2,49.1,30.28,South,180,0.0,3.0,62,0.00,,,0.00,meteohub,2013-01-24 23:42:00,
2013-01-24 18:47:00,61.7,49.8,30.28,North,0,2.0,4.0,65,0.00,,,0.00,meteohub,2013-01-24 23:47:00,
2013-01-24 18:52:00,61.2,49.6,30.28,NE,45,0.0,4.0,66,0.00,,,0.00,meteohub,2013-01-24 23:52:00,
2013-01-24 18:57:00,60.8,49.5,30.27,NE,45,0.0,4.0,66,0.00,,,0.00,meteohub,2013-01-24 23:57:00,
2013-01-24 19:02:00,60.4,49.5,30.28,NE,45,0.0,2.0,67,0.00,,,0.00,meteohub,2013-01-25 00:02:00,
2013-01-24 19:07:00,60.4,49.5,30.28,NE,45,0.0,0.0,67,0.00,,,0.00,meteohub,2013-01-25 00:07:00,
2013-01-24 19:12:00,59.7,49.5,30.28,NE,45,0.0,0.0,69,0.00,,,0.00,meteohub,2013-01-25 00:12:00,
2013-01-24 19:17:00,59.4,50.0,30.28,NE,45,0.0,1.0,71,0.00,,,0.00,meteohub,2013-01-25 00:17:00,
2013-01-24 19:22:00,58.8,49.8,30.28,NE,45,0.0,1.0,72,0.00,,,0.00,meteohub,2013-01-25 00:22:00,
2013-01-24 19:27:00,58.5,49.8,30.28,NE,45,0.0,1.0,73,0.00,,,0.00,meteohub,2013-01-25 00:27:00,
2013-01-24 19:32:00,58.1,49.8,30.29,NE,45,0.0,2.0,74,0.00,,,0.00,meteohub,2013-01-25 00:32:00,
2013-01-24 19:37:00,57.6,50.0,30.28,South,180,0.0,2.0,76,0.00,,,0.00,meteohub,2013-01-25 00:37:00,
2013-01-24 19:42:00,57.0,49.8,30.29,South,180,0.0,3.0,77,0.00,,,0.00,meteohub,2013-01-25 00:42:00,
2013-01-24 19:47:00,56.7,50.2,30.29,South,180,0.0,3.0,79,0.00,,,0.00,meteohub,2013-01-25 00:47:00,
2013-01-24 19:52:00,56.5,51.1,30.29,NE,45,0.0,3.0,82,0.00,,,0.00,meteohub,2013-01-25 00:52:00,
2013-01-24 19:57:00,56.3,50.9,30.29,NE,45,0.0,2.0,82,0.00,,,0.00,meteohub,2013-01-25 00:57:00,
2013-01-24 20:02:00,56.1,50.7,30.29,NE,45,0.0,2.0,82,0.00,,,0.00,meteohub,2013-01-25 01:02:00,
2013-01-24 20:07:00,56.1,50.7,30.30,NE,45,0.0,0.0,82,0.00,,,0.00,meteohub,2013-01-25 01:07:00,
2013-01-24 20:12:00,55.4,50.0,30.30,East,90,0.0,0.0,82,0.00,,,0.00,meteohub,2013-01-25 01:12:00,
2013-01-24 20:17:00,55.6,51.1,30.30,NE,45,0.0,0.0,85,0.00,,,0.00,meteohub,2013-01-25 01:17:00,
2013-01-24 20:22:00,55.6,50.9,30.30,East,90,2.0,0.0,84,0.00,,,0.00,meteohub,2013-01-25 01:22:00,
2013-01-24 20:27:00,56.1,51.1,30.30,East,90,2.0,3.0,83,0.00,,,0.00,meteohub,2013-01-25 01:27:00,
2013-01-24 20:32:00,57.0,50.5,30.30,East,90,2.0,3.0,79,0.00,,,0.00,meteohub,2013-01-25 01:32:00,
2013-01-24 20:37:00,57.7,50.2,30.30,ESE,113,2.0,3.0,76,0.00,,,0.00,meteohub,2013-01-25 01:37:00,
2013-01-24 20:42:00,58.1,49.5,30.30,East,90,2.0,3.0,73,0.00,,,0.00,meteohub,2013-01-25 01:42:00,
2013-01-24 20:47:00,58.1,48.7,30.30,East,90,2.0,3.0,71,0.00,,,0.00,meteohub,2013-01-25 01:47:00,
2013-01-24 20:52:00,58.1,48.4,30.30,East,90,2.0,2.0,70,0.00,,,0.00,meteohub,2013-01-25 01:52:00,
2013-01-24 20:57:00,58.1,48.0,30.30,East,90,1.0,2.0,69,0.00,,,0.00,meteohub,2013-01-25 01:57:00,
2013-01-24 21:02:00,57.9,47.8,30.30,East,90,1.0,2.0,69,0.00,,,0.00,meteohub,2013-01-25 02:02:00,
2013-01-24 21:07:00,57.4,47.7,30.31,East,90,2.0,2.0,70,0.00,,,0.00,meteohub,2013-01-25 02:07:00,
2013-01-24 21:12:00,57.4,47.7,30.31,East,90,4.0,4.0,70,0.00,,,0.00,meteohub,2013-01-25 02:12:00,
2013-01-24 21:17:00,57.9,47.8,30.31,East,90,2.0,4.0,69,0.00,,,0.00,meteohub,2013-01-25 02:17:00,
2013-01-24 21:22:00,58.3,48.2,30.31,SE,135,4.0,4.0,69,0.00,,,0.00,meteohub,2013-01-25 02:22:00,
2013-01-24 21:27:00,58.6,48.2,30.31,East,90,2.0,4.0,68,0.00,,,0.00,meteohub,2013-01-25 02:27:00,
2013-01-24 21:32:00,58.8,48.2,30.31,East,90,2.0,4.0,68,0.00,,,0.00,meteohub,2013-01-25 02:32:00,
2013-01-24 21:37:00,59.0,48.4,30.31,East,90,2.0,4.0,68,0.00,,,0.00,meteohub,2013-01-25 02:37:00,
2013-01-24 21:42:00,59.0,48.0,30.31,East,90,3.0,4.0,67,0.00,,,0.00,meteohub,2013-01-25 02:42:00,
2013-01-24 21:47:00,59.0,48.0,30.31,East,90,2.0,4.0,67,0.00,,,0.00,meteohub,2013-01-25 02:47:00,
2013-01-24 21:52:00,58.8,48.2,30.31,East,90,2.0,4.0,68,0.00,,,0.00,meteohub,2013-01-25 02:52:00,
2013-01-24 21:57:00,58.6,48.2,30.32,NE,45,2.0,4.0,68,0.00,,,0.00,meteohub,2013-01-25 02:57:00,
2013-01-24 22:02:00,58.3,47.8,30.32,East,90,2.0,2.0,68,0.00,,,0.00,meteohub,2013-01-25 03:02:00,
2013-01-24 22:07:00,58.1,48.0,30.32,East,90,2.0,2.0,69,0.00,,,0.00,meteohub,2013-01-25 03:07:00,
2013-01-24 22:12:00,57.9,47.8,30.32,East,90,2.0,2.0,69,0.00,,,0.00,meteohub,2013-01-25 03:12:00,
2013-01-24 22:17:00,57.9,48.2,30.32,SE,135,2.0,3.0,70,0.00,,,0.00,meteohub,2013-01-25 03:17:00,
2013-01-24 22:22:00,57.7,48.4,30.32,East,90,2.0,3.0,71,0.00,,,0.00,meteohub,2013-01-25 03:22:00,
2013-01-24 22:27:00,57.6,48.2,30.32,East,90,2.0,3.0,71,0.00,,,0.00,meteohub,2013-01-25 03:27:00,
2013-01-24 22:32:00,57.6,48.2,30.32,East,90,2.0,3.0,71,0.00,,,0.00,meteohub,2013-01-25 03:32:00,
2013-01-24 22:37:00,57.2,47.8,30.32,SE,135,2.0,2.0,71,0.00,,,0.00,meteohub,2013-01-25 03:37:00,
2013-01-24 22:42:00,57.0,48.0,30.32,East,90,2.0,2.0,72,0.00,,,0.00,meteohub,2013-01-25 03:42:00,
2013-01-24 22:47:00,56.8,48.2,30.32,East,90,2.0,2.0,73,0.00,,,0.00,meteohub,2013-01-25 03:47:00,
2013-01-24 22:52:00,56.8,48.2,30.32,East,90,2.0,2.0,73,0.00,,,0.00,meteohub,2013-01-25 03:52:00,
2013-01-24 22:57:00,55.9,47.8,30.32,SE,135,0.0,2.0,74,0.00,,,0.00,meteohub,2013-01-25 03:57:00,
2013-01-24 23:02:00,55.6,47.5,30.33,SE,135,1.0,2.0,74,0.00,,,0.00,meteohub,2013-01-25 04:02:00,
2013-01-24 23:07:00,55.6,47.5,30.33,SE,135,1.0,2.0,74,0.00,,,0.00,meteohub,2013-01-25 04:07:00,
2013-01-24 23:12:00,54.5,47.1,30.33,SE,135,0.0,1.0,76,0.00,,,0.00,meteohub,2013-01-25 04:12:00,
2013-01-24 23:17:00,54.3,47.7,30.33,East,90,2.0,2.0,78,0.00,,,0.00,meteohub,2013-01-25 04:17:00,
2013-01-24 23:22:00,54.3,48.0,30.32,East,90,1.0,2.0,79,0.00,,,0.00,meteohub,2013-01-25 04:22:00,
2013-01-24 23:27:00,54.5,48.4,30.32,East,90,0.0,2.0,80,0.00,,,0.00,meteohub,2013-01-25 04:27:00,
2013-01-24 23:32:00,54.5,48.4,30.32,East,90,0.0,2.0,80,0.00,,,0.00,meteohub,2013-01-25 04:32:00,
2013-01-24 23:37:00,54.3,48.2,30.32,East,90,0.0,1.0,80,0.00,,,0.00,meteohub,2013-01-25 04:37:00,
2013-01-24 23:42:00,54.3,48.2,30.32,East,90,0.0,0.0,80,0.00,,,0.00,meteohub,2013-01-25 04:42:00,
2013-01-24 23:47:00,54.0,48.0,30.32,East,90,0.0,0.0,80,0.00,,,0.00,meteohub,2013-01-25 04:47:00,
2013-01-24 23:52:00,53.8,47.8,30.32,East,90,1.0,0.0,80,0.00,,,0.00,meteohub,2013-01-25 04:52:00,
2013-01-24 23:57:00,53.8,48.0,30.32,East,90,2.0,2.0,81,0.00,,,0.00,meteohub,2013-01-25 04:57:00,